sensor_id;sensor_type;location;lat;lon;timestamp;P1;durP1;ratioP1;P2;durP2;ratioP2
20008;SDS011;10165;42.662;23.260;2023-04-25T00:01:45;6.30;;;2.70;;
20008;SDS011;10165;42.662;23.260;2023-04-25T00:04:12;2.43;;;2.00;;
20008;SDS011;10165;42.662;23.260;2023-04-25T00:06:39;2.03;;;1.73;;
20008;SDS011;10165;42.662;23.260;2023-04-25T00:09:06;4.67;;;2.63;;
20008;SDS011;10165;42.662;23.260;2023-04-25T00:11:35;2.97;;;2.37;;
20008;SDS011;10165;42.662;23.260;2023-04-25T00:14:03;3.20;;;1.80;;
20008;SDS011;10165;42.662;23.260;2023-04-25T00:16:30;3.10;;;2.03;;
20008;SDS011;10165;42.662;23.260;2023-04-25T00:19:00;3.43;;;1.90;;
20008;SDS011;10165;42.662;23.260;2023-04-25T00:21:29;3.07;;;1.80;;
20008;SDS011;10165;42.662;23.260;2023-04-25T00:23:58;2.73;;;1.53;;
20008;SDS011;10165;42.662;23.260;2023-04-25T00:26:25;3.43;;;2.17;;
20008;SDS011;10165;42.662;23.260;2023-04-25T00:28:53;2.87;;;1.83;;
20008;SDS011;10165;42.662;23.260;2023-04-25T00:31:20;2.77;;;2.10;;
20008;SDS011;10165;42.662;23.260;2023-04-25T00:33:47;3.40;;;1.80;;
20008;SDS011;10165;42.662;23.260;2023-04-25T00:36:14;4.07;;;2.43;;
20008;SDS011;10165;42.662;23.260;2023-04-25T00:38:41;2.40;;;1.90;;
20008;SDS011;10165;42.662;23.260;2023-04-25T00:41:08;2.50;;;2.13;;
20008;SDS011;10165;42.662;23.260;2023-04-25T00:43:36;5.20;;;2.17;;
20008;SDS011;10165;42.662;23.260;2023-04-25T00:46:03;1.90;;;1.60;;
20008;SDS011;10165;42.662;23.260;2023-04-25T00:48:30;2.40;;;2.20;;
20008;SDS011;10165;42.662;23.260;2023-04-25T00:50:57;2.33;;;1.97;;
20008;SDS011;10165;42.662;23.260;2023-04-25T00:53:25;3.20;;;2.10;;
20008;SDS011;10165;42.662;23.260;2023-04-25T00:55:54;2.23;;;2.03;;
20008;SDS011;10165;42.662;23.260;2023-04-25T00:58:21;1.53;;;1.43;;
20008;SDS011;10165;42.662;23.260;2023-04-25T01:00:49;3.60;;;1.40;;
20008;SDS011;10165;42.662;23.260;2023-04-25T01:03:18;1.80;;;1.60;;
20008;SDS011;10165;42.662;23.260;2023-04-25T01:05:48;4.57;;;1.63;;
20008;SDS011;10165;42.662;23.260;2023-04-25T01:08:15;3.17;;;1.80;;
20008;SDS011;10165;42.662;23.260;2023-04-25T01:10:42;3.50;;;1.90;;
20008;SDS011;10165;42.662;23.260;2023-04-25T01:13:08;3.20;;;2.23;;
20008;SDS011;10165;42.662;23.260;2023-04-25T01:15:35;3.10;;;2.50;;
20008;SDS011;10165;42.662;23.260;2023-04-25T01:18:03;4.10;;;2.47;;
20008;SDS011;10165;42.662;23.260;2023-04-25T01:20:32;1.80;;;1.70;;
20008;SDS011;10165;42.662;23.260;2023-04-25T01:22:59;3.10;;;2.30;;
20008;SDS011;10165;42.662;23.260;2023-04-25T01:25:28;2.67;;;2.17;;
20008;SDS011;10165;42.662;23.260;2023-04-25T01:27:57;4.93;;;2.63;;
20008;SDS011;10165;42.662;23.260;2023-04-25T01:30:27;3.57;;;2.60;;
20008;SDS011;10165;42.662;23.260;2023-04-25T01:32:55;4.07;;;3.20;;
20008;SDS011;10165;42.662;23.260;2023-04-25T01:35:23;5.90;;;2.77;;
20008;SDS011;10165;42.662;23.260;2023-04-25T01:37:50;3.23;;;2.93;;
20008;SDS011;10165;42.662;23.260;2023-04-25T01:40:18;3.27;;;2.50;;
20008;SDS011;10165;42.662;23.260;2023-04-25T01:42:47;3.97;;;3.33;;
20008;SDS011;10165;42.662;23.260;2023-04-25T01:45:14;5.30;;;2.80;;
20008;SDS011;10165;42.662;23.260;2023-04-25T01:47:41;5.90;;;3.20;;
20008;SDS011;10165;42.662;23.260;2023-04-25T01:50:10;3.87;;;2.90;;
20008;SDS011;10165;42.662;23.260;2023-04-25T01:52:37;6.03;;;3.37;;
20008;SDS011;10165;42.662;23.260;2023-04-25T01:55:05;3.40;;;3.03;;
20008;SDS011;10165;42.662;23.260;2023-04-25T01:57:32;3.70;;;3.00;;
20008;SDS011;10165;42.662;23.260;2023-04-25T02:00:00;5.70;;;3.30;;
20008;SDS011;10165;42.662;23.260;2023-04-25T02:02:29;6.10;;;3.80;;
20008;SDS011;10165;42.662;23.260;2023-04-25T02:04:56;5.50;;;3.17;;
20008;SDS011;10165;42.662;23.260;2023-04-25T02:07:22;11.70;;;3.63;;
20008;SDS011;10165;42.662;23.260;2023-04-25T02:09:49;6.00;;;3.73;;
20008;SDS011;10165;42.662;23.260;2023-04-25T02:12:16;5.57;;;3.20;;
20008;SDS011;10165;42.662;23.260;2023-04-25T02:14:42;4.43;;;3.40;;
20008;SDS011;10165;42.662;23.260;2023-04-25T02:17:09;5.33;;;3.20;;
20008;SDS011;10165;42.662;23.260;2023-04-25T02:19:36;4.87;;;2.77;;
20008;SDS011;10165;42.662;23.260;2023-04-25T02:22:03;3.20;;;2.60;;
20008;SDS011;10165;42.662;23.260;2023-04-25T02:24:29;4.70;;;3.40;;
20008;SDS011;10165;42.662;23.260;2023-04-25T02:26:58;3.00;;;2.70;;
20008;SDS011;10165;42.662;23.260;2023-04-25T02:29:24;5.13;;;3.23;;
20008;SDS011;10165;42.662;23.260;2023-04-25T02:31:51;6.23;;;3.33;;
20008;SDS011;10165;42.662;23.260;2023-04-25T02:34:18;4.37;;;2.70;;
20008;SDS011;10165;42.662;23.260;2023-04-25T02:36:45;3.77;;;3.10;;
20008;SDS011;10165;42.662;23.260;2023-04-25T02:39:11;4.60;;;3.20;;
20008;SDS011;10165;42.662;23.260;2023-04-25T02:41:38;4.93;;;3.47;;
20008;SDS011;10165;42.662;23.260;2023-04-25T02:44:04;7.90;;;5.70;;
20008;SDS011;10165;42.662;23.260;2023-04-25T02:46:31;11.87;;;6.90;;
20008;SDS011;10165;42.662;23.260;2023-04-25T02:49:03;16.03;;;9.73;;
20008;SDS011;10165;42.662;23.260;2023-04-25T02:51:29;28.53;;;17.07;;
20008;SDS011;10165;42.662;23.260;2023-04-25T02:53:56;28.87;;;15.20;;
20008;SDS011;10165;42.662;23.260;2023-04-25T02:56:23;7.73;;;5.10;;
20008;SDS011;10165;42.662;23.260;2023-04-25T02:58:52;14.03;;;7.30;;
20008;SDS011;10165;42.662;23.260;2023-04-25T03:01:20;10.60;;;6.47;;
20008;SDS011;10165;42.662;23.260;2023-04-25T03:03:46;9.37;;;5.97;;
20008;SDS011;10165;42.662;23.260;2023-04-25T03:06:14;7.80;;;5.63;;
20008;SDS011;10165;42.662;23.260;2023-04-25T03:08:41;11.50;;;5.90;;
20008;SDS011;10165;42.662;23.260;2023-04-25T03:11:09;10.70;;;5.23;;
20008;SDS011;10165;42.662;23.260;2023-04-25T03:13:36;7.13;;;5.47;;
20008;SDS011;10165;42.662;23.260;2023-04-25T03:16:03;6.83;;;5.20;;
20008;SDS011;10165;42.662;23.260;2023-04-25T03:18:30;8.97;;;5.97;;
20008;SDS011;10165;42.662;23.260;2023-04-25T03:20:57;8.40;;;5.50;;
20008;SDS011;10165;42.662;23.260;2023-04-25T03:23:24;7.60;;;5.57;;
20008;SDS011;10165;42.662;23.260;2023-04-25T03:25:52;9.13;;;5.90;;
20008;SDS011;10165;42.662;23.260;2023-04-25T03:28:18;8.27;;;5.70;;
20008;SDS011;10165;42.662;23.260;2023-04-25T03:30:46;7.10;;;5.33;;
20008;SDS011;10165;42.662;23.260;2023-04-25T03:33:12;9.73;;;5.60;;
20008;SDS011;10165;42.662;23.260;2023-04-25T03:35:39;7.83;;;5.73;;
20008;SDS011;10165;42.662;23.260;2023-04-25T03:38:06;6.90;;;5.20;;
20008;SDS011;10165;42.662;23.260;2023-04-25T03:40:33;17.03;;;5.77;;
20008;SDS011;10165;42.662;23.260;2023-04-25T03:43:00;8.53;;;5.53;;
20008;SDS011;10165;42.662;23.260;2023-04-25T03:45:26;9.27;;;6.27;;
20008;SDS011;10165;42.662;23.260;2023-04-25T03:47:53;9.20;;;6.40;;
20008;SDS011;10165;42.662;23.260;2023-04-25T03:50:20;9.73;;;6.30;;
20008;SDS011;10165;42.662;23.260;2023-04-25T03:52:47;13.27;;;7.53;;
20008;SDS011;10165;42.662;23.260;2023-04-25T03:55:13;8.97;;;6.30;;
20008;SDS011;10165;42.662;23.260;2023-04-25T03:57:40;9.87;;;6.20;;
20008;SDS011;10165;42.662;23.260;2023-04-25T04:00:07;10.63;;;6.27;;
20008;SDS011;10165;42.662;23.260;2023-04-25T04:02:34;10.80;;;5.67;;
20008;SDS011;10165;42.662;23.260;2023-04-25T04:05:03;10.73;;;7.30;;
20008;SDS011;10165;42.662;23.260;2023-04-25T04:07:30;7.80;;;5.57;;
20008;SDS011;10165;42.662;23.260;2023-04-25T04:09:59;7.00;;;5.33;;
20008;SDS011;10165;42.662;23.260;2023-04-25T04:12:26;7.93;;;5.50;;
20008;SDS011;10165;42.662;23.260;2023-04-25T04:14:52;7.73;;;5.33;;
20008;SDS011;10165;42.662;23.260;2023-04-25T04:17:19;9.03;;;5.93;;
20008;SDS011;10165;42.662;23.260;2023-04-25T04:19:45;10.10;;;5.30;;
20008;SDS011;10165;42.662;23.260;2023-04-25T04:22:12;8.77;;;5.70;;
20008;SDS011;10165;42.662;23.260;2023-04-25T04:24:39;7.20;;;5.43;;
20008;SDS011;10165;42.662;23.260;2023-04-25T04:27:05;8.87;;;5.80;;
20008;SDS011;10165;42.662;23.260;2023-04-25T04:29:32;9.40;;;4.70;;
20008;SDS011;10165;42.662;23.260;2023-04-25T04:31:59;9.27;;;6.20;;
20008;SDS011;10165;42.662;23.260;2023-04-25T04:34:27;7.73;;;5.53;;
20008;SDS011;10165;42.662;23.260;2023-04-25T04:36:54;9.30;;;6.33;;
20008;SDS011;10165;42.662;23.260;2023-04-25T04:39:21;8.33;;;5.60;;
20008;SDS011;10165;42.662;23.260;2023-04-25T04:41:48;7.80;;;6.00;;
20008;SDS011;10165;42.662;23.260;2023-04-25T04:44:15;22.00;;;7.40;;
20008;SDS011;10165;42.662;23.260;2023-04-25T04:46:41;8.77;;;6.03;;
20008;SDS011;10165;42.662;23.260;2023-04-25T04:49:09;7.77;;;5.93;;
20008;SDS011;10165;42.662;23.260;2023-04-25T04:51:37;8.53;;;6.07;;
20008;SDS011;10165;42.662;23.260;2023-04-25T04:54:04;8.33;;;5.17;;
20008;SDS011;10165;42.662;23.260;2023-04-25T04:56:30;6.43;;;5.40;;
20008;SDS011;10165;42.662;23.260;2023-04-25T04:58:58;7.67;;;4.90;;
20008;SDS011;10165;42.662;23.260;2023-04-25T05:01:25;5.50;;;4.13;;
20008;SDS011;10165;42.662;23.260;2023-04-25T05:03:52;6.43;;;4.73;;
20008;SDS011;10165;42.662;23.260;2023-04-25T05:06:20;6.77;;;4.57;;
20008;SDS011;10165;42.662;23.260;2023-04-25T05:08:47;8.23;;;5.20;;
20008;SDS011;10165;42.662;23.260;2023-04-25T05:11:13;8.03;;;5.67;;
20008;SDS011;10165;42.662;23.260;2023-04-25T05:13:40;8.13;;;6.17;;
20008;SDS011;10165;42.662;23.260;2023-04-25T05:16:07;7.00;;;5.80;;
20008;SDS011;10165;42.662;23.260;2023-04-25T05:18:33;6.97;;;5.50;;
20008;SDS011;10165;42.662;23.260;2023-04-25T05:21:00;10.47;;;6.40;;
20008;SDS011;10165;42.662;23.260;2023-04-25T05:23:27;7.00;;;5.13;;
20008;SDS011;10165;42.662;23.260;2023-04-25T05:25:54;6.47;;;5.27;;
20008;SDS011;10165;42.662;23.260;2023-04-25T05:28:21;5.60;;;4.80;;
20008;SDS011;10165;42.662;23.260;2023-04-25T05:30:47;8.97;;;5.33;;
20008;SDS011;10165;42.662;23.260;2023-04-25T05:33:14;10.10;;;6.00;;
20008;SDS011;10165;42.662;23.260;2023-04-25T05:35:41;8.07;;;6.37;;
20008;SDS011;10165;42.662;23.260;2023-04-25T05:38:08;8.20;;;6.77;;
20008;SDS011;10165;42.662;23.260;2023-04-25T05:40:35;8.20;;;5.63;;
20008;SDS011;10165;42.662;23.260;2023-04-25T05:43:02;9.33;;;5.87;;
20008;SDS011;10165;42.662;23.260;2023-04-25T05:45:28;9.10;;;6.23;;
20008;SDS011;10165;42.662;23.260;2023-04-25T05:47:55;7.73;;;5.63;;
20008;SDS011;10165;42.662;23.260;2023-04-25T05:50:22;11.03;;;6.93;;
20008;SDS011;10165;42.662;23.260;2023-04-25T05:52:49;10.80;;;7.03;;
20008;SDS011;10165;42.662;23.260;2023-04-25T05:55:16;11.40;;;6.40;;
20008;SDS011;10165;42.662;23.260;2023-04-25T05:57:42;12.73;;;6.13;;
20008;SDS011;10165;42.662;23.260;2023-04-25T06:00:12;8.63;;;6.07;;
20008;SDS011;10165;42.662;23.260;2023-04-25T06:02:41;9.50;;;6.23;;
20008;SDS011;10165;42.662;23.260;2023-04-25T06:05:08;9.43;;;7.07;;
20008;SDS011;10165;42.662;23.260;2023-04-25T06:07:35;10.13;;;7.23;;
20008;SDS011;10165;42.662;23.260;2023-04-25T06:10:02;12.03;;;7.83;;
20008;SDS011;10165;42.662;23.260;2023-04-25T06:12:32;8.43;;;6.27;;
20008;SDS011;10165;42.662;23.260;2023-04-25T06:14:59;10.30;;;7.17;;
20008;SDS011;10165;42.662;23.260;2023-04-25T06:17:27;10.33;;;7.07;;
20008;SDS011;10165;42.662;23.260;2023-04-25T06:19:54;9.90;;;6.73;;
20008;SDS011;10165;42.662;23.260;2023-04-25T06:22:21;11.00;;;7.67;;
20008;SDS011;10165;42.662;23.260;2023-04-25T06:24:47;7.83;;;5.90;;
20008;SDS011;10165;42.662;23.260;2023-04-25T06:27:14;9.77;;;5.90;;
20008;SDS011;10165;42.662;23.260;2023-04-25T06:29:42;9.57;;;6.93;;
20008;SDS011;10165;42.662;23.260;2023-04-25T06:32:09;8.70;;;6.67;;
20008;SDS011;10165;42.662;23.260;2023-04-25T06:34:35;10.07;;;7.20;;
20008;SDS011;10165;42.662;23.260;2023-04-25T06:37:02;15.50;;;7.00;;
20008;SDS011;10165;42.662;23.260;2023-04-25T06:39:29;9.17;;;6.63;;
20008;SDS011;10165;42.662;23.260;2023-04-25T06:41:56;12.50;;;6.90;;
20008;SDS011;10165;42.662;23.260;2023-04-25T06:44:22;13.03;;;7.47;;
20008;SDS011;10165;42.662;23.260;2023-04-25T06:46:50;11.80;;;6.83;;
20008;SDS011;10165;42.662;23.260;2023-04-25T06:49:17;10.40;;;6.73;;
20008;SDS011;10165;42.662;23.260;2023-04-25T06:51:44;11.53;;;6.27;;
20008;SDS011;10165;42.662;23.260;2023-04-25T06:54:10;9.00;;;5.80;;
20008;SDS011;10165;42.662;23.260;2023-04-25T06:56:37;9.77;;;6.00;;
20008;SDS011;10165;42.662;23.260;2023-04-25T06:59:04;8.17;;;5.80;;
20008;SDS011;10165;42.662;23.260;2023-04-25T07:01:30;7.57;;;5.57;;
20008;SDS011;10165;42.662;23.260;2023-04-25T07:03:57;11.57;;;6.63;;
20008;SDS011;10165;42.662;23.260;2023-04-25T07:06:24;8.37;;;6.37;;
20008;SDS011;10165;42.662;23.260;2023-04-25T07:08:52;13.10;;;6.47;;
20008;SDS011;10165;42.662;23.260;2023-04-25T07:11:18;9.97;;;6.90;;
20008;SDS011;10165;42.662;23.260;2023-04-25T07:13:45;10.13;;;6.60;;
20008;SDS011;10165;42.662;23.260;2023-04-25T07:16:12;12.27;;;7.80;;
20008;SDS011;10165;42.662;23.260;2023-04-25T07:18:39;12.27;;;7.83;;
20008;SDS011;10165;42.662;23.260;2023-04-25T07:21:05;18.37;;;7.83;;
20008;SDS011;10165;42.662;23.260;2023-04-25T07:23:32;10.43;;;8.10;;
20008;SDS011;10165;42.662;23.260;2023-04-25T07:25:59;9.40;;;6.67;;
20008;SDS011;10165;42.662;23.260;2023-04-25T07:28:25;7.87;;;5.57;;
20008;SDS011;10165;42.662;23.260;2023-04-25T07:30:52;7.57;;;6.63;;
20008;SDS011;10165;42.662;23.260;2023-04-25T07:33:19;14.73;;;6.43;;
20008;SDS011;10165;42.662;23.260;2023-04-25T07:35:46;12.03;;;6.90;;
20008;SDS011;10165;42.662;23.260;2023-04-25T07:38:13;9.63;;;5.70;;
20008;SDS011;10165;42.662;23.260;2023-04-25T07:40:40;8.07;;;5.10;;
20008;SDS011;10165;42.662;23.260;2023-04-25T07:43:06;9.43;;;6.07;;
20008;SDS011;10165;42.662;23.260;2023-04-25T07:45:33;18.60;;;6.33;;
20008;SDS011;10165;42.662;23.260;2023-04-25T07:48:00;15.80;;;6.87;;
20008;SDS011;10165;42.662;23.260;2023-04-25T07:50:27;12.13;;;6.43;;
20008;SDS011;10165;42.662;23.260;2023-04-25T07:52:53;11.57;;;6.37;;
20008;SDS011;10165;42.662;23.260;2023-04-25T07:55:20;7.27;;;5.30;;
20008;SDS011;10165;42.662;23.260;2023-04-25T07:57:47;9.60;;;5.20;;
20008;SDS011;10165;42.662;23.260;2023-04-25T08:00:14;6.40;;;4.37;;
20008;SDS011;10165;42.662;23.260;2023-04-25T08:02:41;3.40;;;2.80;;
20008;SDS011;10165;42.662;23.260;2023-04-25T08:08:18;2.20;;;1.77;;
20008;SDS011;10165;42.662;23.260;2023-04-25T08:10:45;2.10;;;1.73;;
20008;SDS011;10165;42.662;23.260;2023-04-25T08:13:11;2.57;;;1.60;;
20008;SDS011;10165;42.662;23.260;2023-04-25T08:15:38;2.07;;;1.80;;
20008;SDS011;10165;42.662;23.260;2023-04-25T08:18:05;3.00;;;1.97;;
20008;SDS011;10165;42.662;23.260;2023-04-25T08:20:32;1.77;;;1.30;;
20008;SDS011;10165;42.662;23.260;2023-04-25T08:22:59;1.47;;;1.37;;
20008;SDS011;10165;42.662;23.260;2023-04-25T08:25:25;1.73;;;1.63;;
20008;SDS011;10165;42.662;23.260;2023-04-25T08:27:52;1.50;;;1.40;;
20008;SDS011;10165;42.662;23.260;2023-04-25T08:30:18;2.73;;;1.70;;
20008;SDS011;10165;42.662;23.260;2023-04-25T08:32:45;3.10;;;1.97;;
20008;SDS011;10165;42.662;23.260;2023-04-25T08:35:12;1.73;;;1.63;;
20008;SDS011;10165;42.662;23.260;2023-04-25T08:37:40;2.20;;;1.97;;
20008;SDS011;10165;42.662;23.260;2023-04-25T08:40:07;2.23;;;2.03;;
20008;SDS011;10165;42.662;23.260;2023-04-25T08:42:38;2.50;;;2.00;;
20008;SDS011;10165;42.662;23.260;2023-04-25T08:45:08;4.10;;;2.10;;
20008;SDS011;10165;42.662;23.260;2023-04-25T08:47:37;3.30;;;1.77;;
20008;SDS011;10165;42.662;23.260;2023-04-25T08:50:06;1.63;;;1.53;;
20008;SDS011;10165;42.662;23.260;2023-04-25T08:52:38;2.13;;;1.93;;
20008;SDS011;10165;42.662;23.260;2023-04-25T08:55:11;2.93;;;1.30;;
20008;SDS011;10165;42.662;23.260;2023-04-25T08:57:43;2.80;;;1.43;;
20008;SDS011;10165;42.662;23.260;2023-04-25T09:00:11;2.33;;;1.70;;
20008;SDS011;10165;42.662;23.260;2023-04-25T09:02:39;1.47;;;1.37;;
20008;SDS011;10165;42.662;23.260;2023-04-25T09:05:08;1.37;;;1.27;;
20008;SDS011;10165;42.662;23.260;2023-04-25T09:07:36;3.47;;;1.70;;
20008;SDS011;10165;42.662;23.260;2023-04-25T09:10:03;2.17;;;1.30;;
20008;SDS011;10165;42.662;23.260;2023-04-25T09:12:30;1.63;;;1.20;;
20008;SDS011;10165;42.662;23.260;2023-04-25T09:15:10;2.57;;;1.10;;
20008;SDS011;10165;42.662;23.260;2023-04-25T09:17:45;2.07;;;1.30;;
20008;SDS011;10165;42.662;23.260;2023-04-25T09:20:13;1.20;;;1.10;;
20008;SDS011;10165;42.662;23.260;2023-04-25T09:22:40;1.10;;;1.00;;
20008;SDS011;10165;42.662;23.260;2023-04-25T09:25:10;6.57;;;1.33;;
20008;SDS011;10165;42.662;23.260;2023-04-25T09:27:51;1.60;;;1.07;;
20008;SDS011;10165;42.662;23.260;2023-04-25T09:30:18;1.07;;;1.00;;
20008;SDS011;10165;42.662;23.260;2023-04-25T09:32:56;3.23;;;1.10;;
20008;SDS011;10165;42.662;23.260;2023-04-25T09:35:24;0.67;;;0.67;;
20008;SDS011;10165;42.662;23.260;2023-04-25T09:37:55;1.87;;;1.00;;
20008;SDS011;10165;42.662;23.260;2023-04-25T09:40:21;1.10;;;1.00;;
20008;SDS011;10165;42.662;23.260;2023-04-25T09:42:48;4.23;;;1.00;;
20008;SDS011;10165;42.662;23.260;2023-04-25T09:45:15;1.07;;;0.90;;
20008;SDS011;10165;42.662;23.260;2023-04-25T09:47:41;1.23;;;1.13;;
20008;SDS011;10165;42.662;23.260;2023-04-25T09:50:14;1.10;;;1.00;;
20008;SDS011;10165;42.662;23.260;2023-04-25T09:52:42;0.83;;;0.83;;
20008;SDS011;10165;42.662;23.260;2023-04-25T09:55:09;1.27;;;0.90;;
20008;SDS011;10165;42.662;23.260;2023-04-25T09:57:35;1.03;;;0.90;;
20008;SDS011;10165;42.662;23.260;2023-04-25T10:00:06;1.00;;;0.80;;
20008;SDS011;10165;42.662;23.260;2023-04-25T10:02:38;0.93;;;0.93;;
20008;SDS011;10165;42.662;23.260;2023-04-25T10:05:09;1.20;;;1.00;;
20008;SDS011;10165;42.662;23.260;2023-04-25T10:07:36;1.33;;;1.00;;
20008;SDS011;10165;42.662;23.260;2023-04-25T10:10:04;0.93;;;0.93;;
20008;SDS011;10165;42.662;23.260;2023-04-25T10:12:32;0.93;;;0.90;;
20008;SDS011;10165;42.662;23.260;2023-04-25T10:15:00;1.17;;;0.90;;
20008;SDS011;10165;42.662;23.260;2023-04-25T10:17:29;0.97;;;0.70;;
20008;SDS011;10165;42.662;23.260;2023-04-25T10:19:56;1.10;;;0.90;;
20008;SDS011;10165;42.662;23.260;2023-04-25T10:22:26;1.40;;;1.00;;
20008;SDS011;10165;42.662;23.260;2023-04-25T10:24:57;1.07;;;0.80;;
20008;SDS011;10165;42.662;23.260;2023-04-25T10:27:26;1.87;;;1.20;;
20008;SDS011;10165;42.662;23.260;2023-04-25T10:30:04;2.23;;;0.93;;
20008;SDS011;10165;42.662;23.260;2023-04-25T10:32:35;1.00;;;0.90;;
20008;SDS011;10165;42.662;23.260;2023-04-25T10:35:15;0.80;;;0.80;;
20008;SDS011;10165;42.662;23.260;2023-04-25T10:40:33;0.70;;;0.70;;
20008;SDS011;10165;42.662;23.260;2023-04-25T10:46:01;1.03;;;0.97;;
20008;SDS011;10165;42.662;23.260;2023-04-25T10:48:29;0.90;;;0.90;;
20008;SDS011;10165;42.662;23.260;2023-04-25T10:51:18;0.70;;;0.70;;
20008;SDS011;10165;42.662;23.260;2023-04-25T10:53:45;0.70;;;0.70;;
20008;SDS011;10165;42.662;23.260;2023-04-25T10:56:19;0.80;;;0.80;;
20008;SDS011;10165;42.662;23.260;2023-04-25T10:58:47;1.30;;;1.20;;
20008;SDS011;10165;42.662;23.260;2023-04-25T11:01:21;4.70;;;1.07;;
20008;SDS011;10165;42.662;23.260;2023-04-25T11:03:57;1.20;;;0.90;;
20008;SDS011;10165;42.662;23.260;2023-04-25T11:09:45;1.17;;;0.87;;
20008;SDS011;10165;42.662;23.260;2023-04-25T11:12:11;0.60;;;0.60;;
20008;SDS011;10165;42.662;23.260;2023-04-25T11:14:39;1.50;;;0.70;;
20008;SDS011;10165;42.662;23.260;2023-04-25T11:17:10;4.73;;;0.70;;
20008;SDS011;10165;42.662;23.260;2023-04-25T11:19:38;0.80;;;0.80;;
20008;SDS011;10165;42.662;23.260;2023-04-25T11:22:04;2.10;;;1.10;;
20008;SDS011;10165;42.662;23.260;2023-04-25T11:24:33;3.07;;;1.03;;
20008;SDS011;10165;42.662;23.260;2023-04-25T11:27:02;1.97;;;0.90;;
20008;SDS011;10165;42.662;23.260;2023-04-25T11:29:30;0.90;;;0.80;;
20008;SDS011;10165;42.662;23.260;2023-04-25T11:31:58;1.67;;;0.90;;
20008;SDS011;10165;42.662;23.260;2023-04-25T11:34:30;0.80;;;0.80;;
20008;SDS011;10165;42.662;23.260;2023-04-25T11:36:59;0.70;;;0.70;;
20008;SDS011;10165;42.662;23.260;2023-04-25T11:39:28;1.17;;;0.97;;
20008;SDS011;10165;42.662;23.260;2023-04-25T11:41:55;1.33;;;0.73;;
20008;SDS011;10165;42.662;23.260;2023-04-25T11:44:22;0.73;;;0.60;;
20008;SDS011;10165;42.662;23.260;2023-04-25T11:46:49;0.80;;;0.80;;
20008;SDS011;10165;42.662;23.260;2023-04-25T11:49:16;1.00;;;0.90;;
20008;SDS011;10165;42.662;23.260;2023-04-25T11:51:46;0.73;;;0.73;;
20008;SDS011;10165;42.662;23.260;2023-04-25T11:54:14;0.70;;;0.70;;
20008;SDS011;10165;42.662;23.260;2023-04-25T11:56:42;2.00;;;0.93;;
20008;SDS011;10165;42.662;23.260;2023-04-25T11:59:09;5.23;;;1.30;;
20008;SDS011;10165;42.662;23.260;2023-04-25T12:01:38;2.37;;;1.13;;
20008;SDS011;10165;42.662;23.260;2023-04-25T12:04:10;1.00;;;0.90;;
20008;SDS011;10165;42.662;23.260;2023-04-25T12:06:51;1.20;;;1.10;;
20008;SDS011;10165;42.662;23.260;2023-04-25T12:09:32;1.83;;;1.40;;
20008;SDS011;10165;42.662;23.260;2023-04-25T12:12:00;1.80;;;1.53;;
20008;SDS011;10165;42.662;23.260;2023-04-25T12:14:31;1.47;;;1.00;;
20008;SDS011;10165;42.662;23.260;2023-04-25T12:17:00;2.03;;;1.20;;
20008;SDS011;10165;42.662;23.260;2023-04-25T12:19:32;0.80;;;0.80;;
20008;SDS011;10165;42.662;23.260;2023-04-25T12:22:01;0.70;;;0.70;;
20008;SDS011;10165;42.662;23.260;2023-04-25T12:24:29;1.60;;;0.70;;
20008;SDS011;10165;42.662;23.260;2023-04-25T12:27:05;1.10;;;1.10;;
20008;SDS011;10165;42.662;23.260;2023-04-25T12:29:33;1.40;;;1.30;;
20008;SDS011;10165;42.662;23.260;2023-04-25T12:32:14;0.70;;;0.70;;
20008;SDS011;10165;42.662;23.260;2023-04-25T12:34:41;1.17;;;1.00;;
20008;SDS011;10165;42.662;23.260;2023-04-25T12:37:08;0.77;;;0.77;;
20008;SDS011;10165;42.662;23.260;2023-04-25T12:39:35;0.90;;;0.90;;
20008;SDS011;10165;42.662;23.260;2023-04-25T12:42:02;1.30;;;0.70;;
20008;SDS011;10165;42.662;23.260;2023-04-25T12:44:33;0.70;;;0.70;;
20008;SDS011;10165;42.662;23.260;2023-04-25T12:47:00;0.70;;;0.70;;
20008;SDS011;10165;42.662;23.260;2023-04-25T12:49:27;1.23;;;0.90;;
20008;SDS011;10165;42.662;23.260;2023-04-25T12:51:54;2.40;;;1.40;;
20008;SDS011;10165;42.662;23.260;2023-04-25T12:54:20;1.40;;;1.30;;
20008;SDS011;10165;42.662;23.260;2023-04-25T12:56:47;1.00;;;1.00;;
20008;SDS011;10165;42.662;23.260;2023-04-25T12:59:14;2.60;;;1.00;;
20008;SDS011;10165;42.662;23.260;2023-04-25T13:01:40;3.30;;;1.30;;
20008;SDS011;10165;42.662;23.260;2023-04-25T13:04:07;5.23;;;1.73;;
20008;SDS011;10165;42.662;23.260;2023-04-25T13:06:34;2.70;;;1.17;;
20008;SDS011;10165;42.662;23.260;2023-04-25T13:09:01;5.00;;;1.50;;
20008;SDS011;10165;42.662;23.260;2023-04-25T13:11:29;1.30;;;1.20;;
20008;SDS011;10165;42.662;23.260;2023-04-25T13:14:01;4.20;;;1.60;;
20008;SDS011;10165;42.662;23.260;2023-04-25T13:16:28;3.00;;;1.60;;
20008;SDS011;10165;42.662;23.260;2023-04-25T13:18:55;4.13;;;1.33;;
20008;SDS011;10165;42.662;23.260;2023-04-25T13:21:22;2.30;;;1.30;;
20008;SDS011;10165;42.662;23.260;2023-04-25T13:23:49;2.03;;;1.20;;
20008;SDS011;10165;42.662;23.260;2023-04-25T13:26:17;2.03;;;1.30;;
20008;SDS011;10165;42.662;23.260;2023-04-25T13:28:43;4.17;;;1.40;;
20008;SDS011;10165;42.662;23.260;2023-04-25T13:31:10;1.40;;;1.20;;
20008;SDS011;10165;42.662;23.260;2023-04-25T13:33:37;1.40;;;1.30;;
20008;SDS011;10165;42.662;23.260;2023-04-25T13:36:03;1.90;;;1.10;;
20008;SDS011;10165;42.662;23.260;2023-04-25T13:38:31;1.20;;;1.10;;
20008;SDS011;10165;42.662;23.260;2023-04-25T13:40:58;6.90;;;1.27;;
20008;SDS011;10165;42.662;23.260;2023-04-25T13:43:25;2.97;;;1.13;;
20008;SDS011;10165;42.662;23.260;2023-04-25T13:45:51;1.37;;;1.27;;
20008;SDS011;10165;42.662;23.260;2023-04-25T13:48:18;3.10;;;1.20;;
20008;SDS011;10165;42.662;23.260;2023-04-25T13:50:46;3.37;;;1.43;;
20008;SDS011;10165;42.662;23.260;2023-04-25T13:53:13;4.03;;;1.33;;
20008;SDS011;10165;42.662;23.260;2023-04-25T13:55:40;1.40;;;1.30;;
20008;SDS011;10165;42.662;23.260;2023-04-25T13:58:06;1.30;;;1.20;;
20008;SDS011;10165;42.662;23.260;2023-04-25T14:00:37;1.87;;;1.37;;
20008;SDS011;10165;42.662;23.260;2023-04-25T14:03:06;1.23;;;1.13;;
20008;SDS011;10165;42.662;23.260;2023-04-25T14:05:36;2.47;;;1.57;;
20008;SDS011;10165;42.662;23.260;2023-04-25T14:08:07;1.27;;;1.17;;
20008;SDS011;10165;42.662;23.260;2023-04-25T14:10:34;2.60;;;1.10;;
20008;SDS011;10165;42.662;23.260;2023-04-25T14:13:02;2.10;;;0.90;;
20008;SDS011;10165;42.662;23.260;2023-04-25T14:15:31;0.93;;;0.93;;
20008;SDS011;10165;42.662;23.260;2023-04-25T14:17:58;1.37;;;1.27;;
20008;SDS011;10165;42.662;23.260;2023-04-25T14:20:26;2.00;;;1.00;;
20008;SDS011;10165;42.662;23.260;2023-04-25T14:22:53;1.30;;;1.20;;
20008;SDS011;10165;42.662;23.260;2023-04-25T14:25:22;1.20;;;1.10;;
20008;SDS011;10165;42.662;23.260;2023-04-25T14:27:49;1.47;;;1.00;;
20008;SDS011;10165;42.662;23.260;2023-04-25T14:30:20;1.43;;;1.13;;
20008;SDS011;10165;42.662;23.260;2023-04-25T14:32:50;1.23;;;1.13;;
20008;SDS011;10165;42.662;23.260;2023-04-25T14:35:17;2.50;;;1.20;;
20008;SDS011;10165;42.662;23.260;2023-04-25T14:37:44;1.73;;;1.30;;
20008;SDS011;10165;42.662;23.260;2023-04-25T14:40:11;4.87;;;1.57;;
20008;SDS011;10165;42.662;23.260;2023-04-25T14:42:39;2.30;;;1.57;;
20008;SDS011;10165;42.662;23.260;2023-04-25T14:45:07;6.00;;;3.13;;
20008;SDS011;10165;42.662;23.260;2023-04-25T14:47:38;2.17;;;1.87;;
20008;SDS011;10165;42.662;23.260;2023-04-25T14:50:05;2.13;;;1.87;;